Time;durP1;ratioP1;P1;durP2;ratioP2;P2;SDS_P1;SDS_P2;PMS_P1;PMS_P2;Temp;Humidity;BMP_temperature;BMP_pressure;BME280_temperature;BME280_humidity;BME280_pressure;Samples;Min_cycle;Max_cycle;Signal;HPM_P1;HPM_P2
2021/12/06 00:00:37;;;;;;;43.83;26.35;;;;;;;16.43;48.62;101323.41;5010092;28;20490;-42
2021/12/06 00:03:16;;;;;;;46.70;26.73;;;;;;;16.43;48.72;101342.13;5008946;28;20050;-42
2021/12/06 00:05:43;;;;;;;43.08;26.25;;;;;;;16.43;48.63;101341.28;5007880;28;20053;-42
2021/12/06 00:08:10;;;;;;;45.55;25.48;;;;;;;16.42;48.84;101345.78;5013532;28;20152;-41
2021/12/06 00:10:37;;;;;;;41.42;24.98;;;;;;;16.40;49.34;101345.09;5013788;28;20153;-42
2021/12/06 00:13:03;;;;;;;44.17;25.98;;;;;;;16.40;49.10;101353.13;5007263;28;20091;-42
2021/12/06 00:15:32;;;;;;;42.53;24.88;;;;;;;16.40;48.70;101354.91;5010630;28;20418;-42
2021/12/06 00:18:01;;;;;;;46.35;26.52;;;;;;;16.38;49.55;101355.06;5013776;28;20077;-41
2021/12/06 00:20:27;;;;;;;44.35;26.15;;;;;;;16.38;48.73;101354.22;5013904;28;20141;-42
2021/12/06 00:22:54;;;;;;;43.08;25.85;;;;;;;16.37;49.03;101357.88;5010487;28;20520;-42
2021/12/06 00:25:21;;;;;;;44.97;25.10;;;;;;;16.35;49.82;101360.66;5014973;28;20144;-42
2021/12/06 00:27:48;;;;;;;41.58;24.70;;;;;;;16.35;50.06;101370.50;5007809;28;20321;-42
2021/12/06 00:30:16;;;;;;;39.78;24.25;;;;;;;16.34;49.80;101380.38;5014232;28;20140;-42
2021/12/06 00:32:45;;;;;;;39.22;24.00;;;;;;;16.32;49.84;101376.97;5010551;28;20077;-43
2021/12/06 00:35:18;;;;;;;38.75;24.05;;;;;;;16.33;49.83;101383.19;5009926;28;20050;-42
2021/12/06 00:37:56;;;;;;;42.42;25.50;;;;;;;16.32;49.13;101395.69;5009450;28;20046;-42
2021/12/06 00:40:30;;;;;;;40.33;23.55;;;;;;;16.32;49.03;101392.16;5015795;28;20137;-42
2021/12/06 00:42:56;;;;;;;46.40;25.88;;;;;;;16.29;48.87;101380.75;5009663;28;20088;-42
2021/12/06 00:45:23;;;;;;;42.78;25.40;;;;;;;16.29;49.57;101390.63;5010290;28;20038;-42
2021/12/06 00:47:50;;;;;;;37.90;22.48;;;;;;;16.28;49.32;101400.47;5012392;28;20620;-40
2021/12/06 00:50:18;;;;;;;39.53;23.70;;;;;;;16.27;48.95;101401.44;5010190;28;20052;-40
2021/12/06 00:52:46;;;;;;;39.03;23.45;;;;;;;16.26;49.39;101399.75;5012567;28;20140;-40
2021/12/06 00:55:14;;;;;;;40.35;23.67;;;;;;;16.25;49.08;101402.56;5011042;28;20678;-40
2021/12/06 00:57:42;;;;;;;39.33;23.77;;;;;;;16.25;50.09;101414.09;5011757;28;20056;-40
2021/12/06 01:00:15;;;;;;;42.25;25.13;;;;;;;16.24;48.97;101419.56;5012137;28;20058;-40
2021/12/06 01:02:42;;;;;;;37.30;22.83;;;;;;;16.24;49.91;101425.78;5011562;28;20141;-40
2021/12/06 01:05:09;;;;;;;40.47;22.85;;;;;;;16.23;50.05;101420.53;5013616;28;20092;-40
2021/12/06 01:07:36;;;;;;;40.40;23.70;;;;;;;16.24;49.82;101427.56;5010568;28;20068;-40
2021/12/06 01:10:05;;;;;;;39.15;23.50;;;;;;;16.23;50.20;101424.06;5011100;28;20064;-40
2021/12/06 01:12:32;;;;;;;37.92;22.48;;;;;;;16.22;49.25;101427.72;5009549;28;20074;-40
2021/12/06 01:14:59;;;;;;;38.30;22.15;;;;;;;16.22;49.36;101427.72;5009797;28;20061;-41
2021/12/06 01:17:26;;;;;;;36.67;22.60;;;;;;;16.22;50.18;101434.91;5011208;28;20092;-40
2021/12/06 01:19:52;;;;;;;38.30;22.17;;;;;;;16.22;49.86;101429.53;5011953;28;20052;-41
2021/12/06 01:22:31;;;;;;;36.45;22.48;;;;;;;16.21;49.22;101430.53;5011640;28;20112;-40
2021/12/06 01:25:05;;;;;;;33.67;21.00;;;;;;;16.21;50.11;101433.22;5009131;28;20050;-40
2021/12/06 01:40:46;;;;;;;35.08;20.75;;;;;;;16.19;50.19;101460.06;5013143;28;20107;-40
2021/12/06 01:43:13;;;;;;;35.28;20.42;;;;;;;16.17;49.49;101459.34;5009875;28;20607;-41
2021/12/06 01:45:39;;;;;;;33.03;19.83;;;;;;;16.17;50.27;101453.16;5013167;28;20132;-41
2021/12/06 01:48:06;;;;;;;33.55;19.70;;;;;;;16.17;49.71;101462.03;5008487;28;20338;-41
2021/12/06 01:50:33;;;;;;;34.72;20.17;;;;;;;16.18;49.36;101457.53;5006722;28;20341;-41
2021/12/06 01:53:02;;;;;;;33.75;21.17;;;;;;;16.17;49.35;101461.19;5003850;28;20045;-41
2021/12/06 01:55:36;;;;;;;33.83;19.83;;;;;;;16.17;50.35;101455.84;5006850;28;20228;-40
2021/12/06 01:58:05;;;;;;;32.80;19.58;;;;;;;16.17;49.63;101461.19;5006195;28;20153;-39
2021/12/06 02:00:56;;;;;;;29.27;18.30;;;;;;;16.16;49.25;101459.47;5013268;28;20500;-39
2021/12/06 02:03:23;;;;;;;31.88;19.80;;;;;;;16.17;49.28;101461.19;5008111;28;20053;-40
2021/12/06 02:05:49;;;;;;;32.45;18.90;;;;;;;16.17;50.19;101466.53;5010803;28;20335;-40
2021/12/06 02:08:16;;;;;;;29.75;18.10;;;;;;;16.16;50.21;101464.81;5011631;28;20049;-40
2021/12/06 02:10:44;;;;;;;32.60;18.90;;;;;;;16.14;49.89;101467.63;5011728;28;20137;-40
2021/12/06 02:13:11;;;;;;;28.65;18.00;;;;;;;16.16;50.18;101472.84;5013928;28;20080;-40
2021/12/06 02:18:12;;;;;;;28.27;17.08;;;;;;;16.16;49.35;101478.19;5012486;28;20045;-40
2021/12/06 02:20:49;;;;;;;29.13;17.83;;;;;;;16.14;49.41;101470.28;5010248;28;20140;-40
2021/12/06 02:23:18;;;;;;;28.95;16.25;;;;;;;16.14;49.71;101469.44;5011348;28;20136;-40
2021/12/06 02:25:45;;;;;;;27.95;17.48;;;;;;;16.14;50.25;101464.94;5007355;28;20052;-40
2021/12/06 02:28:12;;;;;;;27.67;17.08;;;;;;;16.14;50.00;101464.94;5010359;28;20181;-41
2021/12/06 02:30:38;;;;;;;29.10;17.98;;;;;;;16.15;49.39;101465.78;5008993;28;20137;-41
2021/12/06 02:33:05;;;;;;;27.95;16.33;;;;;;;16.14;49.47;101469.44;5007853;28;20049;-40
2021/12/06 02:35:32;;;;;;;27.60;17.20;;;;;;;16.14;49.60;101467.63;5010369;28;20542;-40
2021/12/06 02:38:02;;;;;;;28.73;17.45;;;;;;;16.14;49.83;101474.78;5009954;28;20661;-40
2021/12/06 02:40:32;;;;;;;27.38;17.05;;;;;;;16.13;49.37;101475.78;5008407;28;20049;-40
2021/12/06 02:43:01;;;;;;;26.45;16.08;;;;;;;16.12;49.33;101471.38;5008529;28;20359;-41
2021/12/06 02:45:29;;;;;;;27.00;16.63;;;;;;;16.12;50.28;101477.59;5009469;28;20046;-40
2021/12/06 02:47:58;;;;;;;26.05;16.17;;;;;;;16.13;49.27;101473.09;5004164;28;20433;-41
2021/12/06 02:50:30;;;;;;;26.40;16.52;;;;;;;16.12;49.85;101476.72;5006931;28;20455;-40
2021/12/06 02:52:57;;;;;;;24.40;15.80;;;;;;;16.10;49.91;101466.19;5013537;28;20049;-41
2021/12/06 02:55:37;;;;;;;25.48;15.90;;;;;;;16.11;49.37;101464.34;5014006;28;20141;-40
2021/12/06 02:58:16;;;;;;;23.15;14.93;;;;;;;16.09;50.28;101463.63;5011754;28;20130;-40
2021/12/06 03:00:55;;;;;;;25.05;16.05;;;;;;;16.10;49.48;101474.19;5009221;28;20046;-40
2021/12/06 03:03:22;;;;;;;23.75;14.75;;;;;;;16.09;49.95;101469.84;5008918;28;20057;-40
2021/12/06 03:05:51;;;;;;;24.98;15.25;;;;;;;16.10;49.85;101470.69;5014222;28;20046;-40
2021/12/06 03:08:39;;;;;;;24.27;15.05;;;;;;;16.08;50.20;101468.13;5006723;28;20196;-40
2021/12/06 03:11:09;;;;;;;26.33;15.68;;;;;;;16.09;49.63;101475.19;5009689;28;20108;-41
2021/12/06 03:13:37;;;;;;;23.73;14.70;;;;;;;16.08;50.28;101473.50;5008410;28;20129;-40
2021/12/06 03:16:04;;;;;;;23.90;15.05;;;;;;;16.07;49.54;101473.59;5003370;28;20038;-41
2021/12/06 03:18:31;;;;;;;24.05;14.35;;;;;;;16.06;50.40;101480.78;5008409;28;20180;-40
2021/12/06 03:20:58;;;;;;;22.25;14.13;;;;;;;16.07;49.99;101470.91;5007356;28;20069;-40
2021/12/06 03:23:25;;;;;;;20.35;13.18;;;;;;;16.06;49.40;101471.91;5009001;28;20054;-41
2021/12/06 03:25:53;;;;;;;20.98;13.48;;;;;;;16.06;50.28;101475.41;5005871;28;20053;-41
2021/12/06 03:28:19;;;;;;;22.77;14.00;;;;;;;16.05;49.33;101476.41;5012337;28;20137;-40
2021/12/06 03:30:46;;;;;;;23.83;13.57;;;;;;;16.04;49.71;101478.22;5009656;28;20133;-40
2021/12/06 03:33:13;;;;;;;21.58;14.23;;;;;;;16.03;50.16;101478.34;5009328;28;20050;-40
2021/12/06 03:35:39;;;;;;;22.30;12.75;;;;;;;16.02;50.28;101482.00;5007316;28;20055;-40
2021/12/06 03:38:06;;;;;;;21.70;13.23;;;;;;;16.02;50.32;101482.00;5013338;28;20345;-40
2021/12/06 03:40:33;;;;;;;20.20;12.77;;;;;;;16.01;49.55;101478.47;5008433;28;20185;-41
2021/12/06 03:43:00;;;;;;;20.05;12.68;;;;;;;16.01;50.11;101489.16;5011591;28;20402;-40
2021/12/06 03:45:26;;;;;;;19.70;12.65;;;;;;;15.99;49.58;101482.22;5011075;28;20038;-40
2021/12/06 03:47:53;;;;;;;19.45;12.20;;;;;;;15.99;50.34;101493.78;5008440;28;20052;-40
2021/12/06 03:50:20;;;;;;;21.60;13.35;;;;;;;16.00;50.50;101498.16;5008531;28;20050;-40
2021/12/06 03:52:46;;;;;;;21.15;12.45;;;;;;;15.99;50.17;101495.59;5014017;28;20370;-40
2021/12/06 03:55:13;;;;;;;19.67;11.85;;;;;;;15.97;50.33;101490.41;5006364;28;20334;-40
2021/12/06 03:57:40;;;;;;;19.20;11.88;;;;;;;15.98;50.04;101491.25;5010830;28;20438;-40
2021/12/06 04:00:08;;;;;;;20.08;12.68;;;;;;;15.97;49.52;101489.53;5006947;28;20073;-40
2021/12/06 04:02:35;;;;;;;19.75;11.85;;;;;;;15.97;50.36;101481.53;5008107;28;20054;-40
2021/12/06 04:05:02;;;;;;;18.15;12.15;;;;;;;15.97;50.57;101484.19;5009747;28;20052;-40
2021/12/06 04:07:28;;;;;;;18.63;11.98;;;;;;;15.96;49.43;101478.00;5012924;28;20081;-40
2021/12/06 04:09:55;;;;;;;17.85;11.43;;;;;;;15.96;50.23;101475.34;5010195;28;20077;-40
2021/12/06 04:12:22;;;;;;;19.92;12.20;;;;;;;15.95;49.94;101478.97;5008754;28;20085;-40
2021/12/06 04:14:49;;;;;;;16.80;11.15;;;;;;;15.95;49.43;101472.75;5009264;28;20157;-40
2021/12/06 04:17:16;;;;;;;17.58;11.30;;;;;;;15.94;49.36;101474.59;5009334;28;20144;-40
2021/12/06 04:19:43;;;;;;;17.52;11.50;;;;;;;15.94;50.56;101481.78;5007558;28;20077;-40
2021/12/06 04:22:11;;;;;;;17.45;11.30;;;;;;;15.93;50.19;101496.97;5008815;28;20053;-40
2021/12/06 04:24:38;;;;;;;19.05;11.38;;;;;;;15.92;49.90;101489.91;5009051;28;20042;-40
2021/12/06 04:27:14;;;;;;;18.00;10.70;;;;;;;15.92;50.38;101497.06;5007107;28;20136;-39
2021/12/06 04:29:46;;;;;;;16.33;11.32;;;;;;;15.91;50.47;101492.69;5012421;28;20068;-40
2021/12/06 04:32:13;;;;;;;16.55;11.10;;;;;;;15.91;49.60;101492.69;5008396;28;20160;-40
2021/12/06 04:34:40;;;;;;;17.63;11.10;;;;;;;15.91;50.06;101495.38;5013355;28;20128;-39
2021/12/06 04:37:06;;;;;;;18.25;11.35;;;;;;;15.91;50.34;101487.34;5010694;28;20050;-40
2021/12/06 04:39:34;;;;;;;17.10;10.27;;;;;;;15.95;50.15;101492.31;5010094;28;20709;-40
2021/12/06 04:42:01;;;;;;;16.90;10.45;;;;;;;16.05;49.51;101495.13;5008736;28;20247;-39
2021/12/06 04:44:28;;;;;;;14.75;9.35;;;;;;;16.12;49.67;101490.09;5012103;28;20046;-39
2021/12/06 04:46:55;;;;;;;15.95;10.43;;;;;;;16.21;49.89;101500.06;5008410;28;21335;-40
2021/12/06 04:49:25;;;;;;;16.08;10.20;;;;;;;16.29;49.97;101503.81;5009646;28;20161;-40
2021/12/06 04:51:54;;;;;;;15.05;9.50;;;;;;;16.40;50.09;101510.09;5009658;28;20104;-40
2021/12/06 04:54:24;;;;;;;15.57;10.68;;;;;;;16.49;48.75;101498.66;5010700;28;20136;-39
2021/12/06 04:56:58;;;;;;;14.48;9.55;;;;;;;16.59;49.21;101512.09;5011335;28;20137;-40
2021/12/06 04:59:37;;;;;;;15.25;10.07;;;;;;;16.67;49.53;101513.16;5010986;28;20056;-40
2021/12/06 05:02:09;;;;;;;14.02;9.00;;;;;;;16.76;49.05;101512.44;5006570;28;20425;-41
2021/12/06 05:04:39;;;;;;;14.93;9.40;;;;;;;16.82;48.54;101511.06;5008754;28;20045;-41
2021/12/06 05:07:17;;;;;;;14.27;9.77;;;;;;;16.89;48.52;101503.38;5014272;28;20976;-40
2021/12/06 05:09:46;;;;;;;15.25;9.02;;;;;;;16.94;48.89;101491.28;5007496;28;20056;-40
2021/12/06 05:12:16;;;;;;;12.50;8.35;;;;;;;17.00;48.04;101503.28;5012574;28;20145;-42
2021/12/06 05:14:43;;;;;;;13.75;8.98;;;;;;;17.05;48.19;101495.72;5008191;28;20045;-40
2021/12/06 05:17:09;;;;;;;15.45;8.70;;;;;;;17.07;47.85;101488.38;5012307;28;20060;-41
2021/12/06 05:19:36;;;;;;;11.23;7.43;;;;;;;17.11;48.69;101488.97;5009404;28;20481;-40
2021/12/06 05:22:04;;;;;;;12.40;8.57;;;;;;;17.13;48.25;101495.91;5011503;28;20071;-40
2021/12/06 05:24:31;;;;;;;12.05;7.82;;;;;;;17.15;47.82;101493.09;5007759;28;20156;-41
2021/12/06 05:26:59;;;;;;;15.43;9.15;;;;;;;17.15;48.15;101485.91;5008485;28;20082;-41
2021/12/06 05:29:28;;;;;;;14.32;9.02;;;;;;;17.17;48.58;101489.31;5010351;28;20164;-41
2021/12/06 05:31:57;;;;;;;13.38;8.68;;;;;;;17.16;48.01;101492.09;5011671;28;20063;-41
2021/12/06 05:34:37;;;;;;;12.00;8.02;;;;;;;17.16;47.94;101498.31;5008970;28;20061;-42
2021/12/06 05:37:10;;;;;;;14.90;8.43;;;;;;;17.15;48.12;101501.97;5008156;28;20654;-41
2021/12/06 05:39:38;;;;;;;13.32;8.82;;;;;;;17.15;47.81;101509.16;5005055;28;20079;-42
2021/12/06 05:42:12;;;;;;;12.95;8.20;;;;;;;17.14;48.15;101511.00;5007700;28;20161;-42
2021/12/06 05:44:39;;;;;;;13.82;7.97;;;;;;;17.13;48.19;101517.34;5009469;28;20100;-42
2021/12/06 05:47:06;;;;;;;13.50;8.25;;;;;;;17.11;47.86;101513.94;5005839;28;20157;-42
2021/12/06 05:49:34;;;;;;;12.02;7.65;;;;;;;17.08;48.17;101516.84;5006459;28;20387;-42
2021/12/06 05:52:00;;;;;;;13.35;8.40;;;;;;;17.07;47.95;101514.31;5006595;28;20137;-42
2021/12/06 05:54:28;;;;;;;10.63;7.45;;;;;;;17.03;47.81;101506.53;5009054;28;20050;-41
2021/12/06 05:56:56;;;;;;;15.50;8.38;;;;;;;17.01;48.47;101513.03;5002802;28;20128;-41
2021/12/06 05:59:23;;;;;;;12.95;7.72;;;;;;;16.99;48.34;101512.28;5011345;28;20137;-41
2021/12/06 06:01:53;;;;;;;14.05;8.73;;;;;;;16.97;48.49;101519.63;5008355;28;20049;-42
2021/12/06 06:04:21;;;;;;;14.35;8.27;;;;;;;16.94;48.05;101527.91;5005432;28;20045;-41
2021/12/06 06:06:49;;;;;;;13.27;8.63;;;;;;;16.91;48.18;101520.97;5007184;28;20077;-41
2021/12/06 06:09:16;;;;;;;11.38;7.63;;;;;;;16.90;47.90;101523.78;5003601;28;20417;-41
2021/12/06 06:11:42;;;;;;;11.90;7.65;;;;;;;16.88;48.36;101525.75;5003834;28;20061;-41
2021/12/06 06:14:09;;;;;;;11.88;7.93;;;;;;;16.87;48.37;101524.91;5009071;28;20513;-41
2021/12/06 06:16:46;;;;;;;12.65;7.65;;;;;;;16.85;48.61;101523.34;5004788;28;20073;-41
2021/12/06 06:19:18;;;;;;;12.73;8.45;;;;;;;16.83;48.90;101531.47;5008257;28;20136;-41
2021/12/06 06:21:45;;;;;;;14.57;8.45;;;;;;;16.82;49.06;101518.25;5007476;28;20045;-41
2021/12/06 06:24:12;;;;;;;13.93;8.48;;;;;;;16.80;48.98;101528.22;5008124;28;20096;-41
2021/12/06 06:26:39;;;;;;;15.48;8.20;;;;;;;16.77;48.40;101526.66;5004785;28;20048;-41
2021/12/06 06:29:06;;;;;;;15.50;8.65;;;;;;;16.75;48.54;101528.59;5004059;28;20046;-41
2021/12/06 06:31:33;;;;;;;14.32;8.73;;;;;;;16.75;49.18;101533.97;5003550;28;20525;-41
2021/12/06 06:34:00;;;;;;;15.10;9.23;;;;;;;16.71;49.87;101536.00;5001497;28;20288;-41
2021/12/06 06:36:26;;;;;;;18.38;9.80;;;;;;;16.69;49.69;101529.94;5006575;28;20053;-42
2021/12/06 06:38:53;;;;;;;19.25;10.00;;;;;;;16.68;49.07;101535.41;5008163;28;20148;-41
2021/12/06 06:41:19;;;;;;;17.33;10.70;;;;;;;16.66;49.97;101538.22;5005774;28;20050;-41
2021/12/06 06:43:46;;;;;;;19.17;10.38;;;;;;;16.62;49.83;101536.78;5002871;28;20345;-41
2021/12/06 06:46:13;;;;;;;16.70;10.82;;;;;;;16.62;50.13;101542.13;5002858;28;20133;-41
2021/12/06 06:48:39;;;;;;;18.27;10.55;;;;;;;16.59;49.19;101545.06;5004310;28;20078;-41
2021/12/06 06:51:06;;;;;;;16.67;10.27;;;;;;;16.59;49.20;101552.25;5004646;28;20402;-41
2021/12/06 06:53:33;;;;;;;17.35;10.80;;;;;;;16.58;49.54;101555.91;5003968;28;20084;-40
2021/12/06 06:56:00;;;;;;;17.80;10.68;;;;;;;16.55;49.68;101557.00;5002579;28;20046;-40
2021/12/06 06:58:27;;;;;;;17.55;9.98;;;;;;;16.53;49.25;101558.97;5004721;28;20421;-41
2021/12/06 07:00:53;;;;;;;20.70;10.98;;;;;;;16.50;49.90;101559.19;5006566;28;20089;-41
2021/12/06 07:03:20;;;;;;;19.40;10.70;;;;;;;16.49;49.83;101555.69;5004580;28;20049;-41
2021/12/06 07:05:47;;;;;;;18.48;10.63;;;;;;;16.47;49.84;101554.94;5007286;28;20101;-41
2021/12/06 07:08:13;;;;;;;24.60;11.55;;;;;;;16.47;49.64;101564.81;5003747;28;20062;-41
2021/12/06 07:10:40;;;;;;;19.13;12.13;;;;;;;16.45;49.24;101561.41;5006715;28;20157;-40
2021/12/06 07:13:10;;;;;;;20.38;12.32;;;;;;;16.43;49.32;101558.00;5005364;28;20264;-40
2021/12/06 07:15:37;;;;;;;18.40;11.38;;;;;;;16.42;49.15;101561.66;4994309;28;20042;-41
2021/12/06 07:18:05;;;;;;;21.38;12.13;;;;;;;16.41;49.21;101562.66;5005764;28;20050;-41
2021/12/06 07:20:32;;;;;;;20.00;11.30;;;;;;;16.39;49.91;101551.19;5001259;28;20121;-41
2021/12/06 07:23:01;;;;;;;21.13;12.52;;;;;;;16.37;49.98;101562.03;5001832;28;20133;-41
2021/12/06 07:25:28;;;;;;;21.73;11.70;;;;;;;16.36;49.88;101555.00;5001387;28;20529;-41
2021/12/06 07:27:55;;;;;;;21.73;12.10;;;;;;;16.35;49.26;101547.06;5008495;28;20153;-40
2021/12/06 07:30:22;;;;;;;17.58;11.68;;;;;;;16.33;49.31;101544.53;5001803;28;20422;-41
2021/12/06 07:32:51;;;;;;;20.13;12.38;;;;;;;16.32;48.71;101542.81;5004369;28;20080;-40
2021/12/06 07:35:19;;;;;;;21.90;12.50;;;;;;;16.29;49.29;101537.75;5004007;28;20125;-40
2021/12/06 07:37:45;;;;;;;18.05;11.45;;;;;;;16.27;49.04;101535.16;5003047;28;20054;-40
2021/12/06 07:40:14;;;;;;;20.27;12.40;;;;;;;16.24;48.91;101534.56;5008928;28;20057;-40
2021/12/06 07:42:41;;;;;;;17.33;11.00;;;;;;;16.23;50.02;101528.38;5009392;28;20082;-41
2021/12/06 07:45:10;;;;;;;21.00;12.52;;;;;;;16.22;49.18;101534.72;5007325;28;20143;-40
2021/12/06 07:47:37;;;;;;;21.10;12.32;;;;;;;16.20;48.93;101531.31;5010007;28;20164;-41
2021/12/06 07:50:06;;;;;;;22.60;13.00;;;;;;;16.18;49.72;101533.25;5009894;28;20719;-40
2021/12/06 07:52:33;;;;;;;17.38;11.10;;;;;;;16.16;49.44;101521.84;5007995;28;20137;-40
2021/12/06 07:55:01;;;;;;;19.45;11.93;;;;;;;16.16;48.59;101529.00;5009094;28;20419;-41
2021/12/06 07:57:28;;;;;;;18.27;11.30;;;;;;;16.13;49.22;101524.75;5008445;28;20699;-40
2021/12/06 07:59:55;;;;;;;19.65;11.80;;;;;;;16.12;48.70;101517.72;5005492;28;20155;-41
2021/12/06 08:02:23;;;;;;;20.15;11.95;;;;;;;16.11;48.89;101515.16;5009119;28;20132;-40
2021/12/06 08:05:29;;;;;;;20.25;11.80;;;;;;;16.10;49.53;101519.66;5009849;28;20052;-41
2021/12/06 08:07:42;;;;;;;20.45;12.52;;;;;;;16.10;49.15;101532.19;5005513;28;20080;-40
2021/12/06 08:10:09;;;;;;;17.73;11.73;;;;;;;16.08;49.49;101535.00;5009620;28;20128;-39
2021/12/06 08:12:35;;;;;;;18.60;12.23;;;;;;;16.06;49.69;101542.28;5008545;28;20129;-39
2021/12/06 08:15:04;;;;;;;18.48;11.82;;;;;;;16.05;49.44;101543.25;5008767;28;20132;-39
2021/12/06 08:17:30;;;;;;;20.65;13.20;;;;;;;16.04;49.65;101542.41;5007147;28;20085;-39
2021/12/06 08:19:57;;;;;;;19.38;13.00;;;;;;;16.03;49.82;101537.16;5010873;28;20056;-39
2021/12/06 08:22:23;;;;;;;19.45;13.25;;;;;;;16.01;48.89;101537.28;5008842;28;20057;-39
2021/12/06 08:24:50;;;;;;;20.98;12.32;;;;;;;16.00;49.29;101535.59;5011105;28;20050;-39
2021/12/06 08:27:16;;;;;;;19.70;11.60;;;;;;;15.98;48.81;101536.69;5002674;28;20657;-40
2021/12/06 08:29:43;;;;;;;21.25;12.38;;;;;;;15.97;48.95;101540.34;5011166;28;20053;-39
2021/12/06 08:32:11;;;;;;;19.95;13.05;;;;;;;15.95;49.35;101543.13;5002563;28;20132;-40
2021/12/06 08:34:42;;;;;;;22.98;13.35;;;;;;;15.94;48.93;101552.13;5006940;28;20057;-40
2021/12/06 08:37:09;;;;;;;19.92;12.55;;;;;;;15.94;49.35;101556.63;5007109;28;20480;-40
2021/12/06 08:39:37;;;;;;;21.48;12.77;;;;;;;15.93;49.58;101554.94;5009702;28;20060;-40
2021/12/06 08:42:05;;;;;;;21.63;12.25;;;;;;;15.92;49.08;101564.78;5009734;28;20108;-40
2021/12/06 08:44:32;;;;;;;21.80;12.80;;;;;;;15.93;49.65;101565.63;5003136;28;20349;-39
2021/12/06 08:46:59;;;;;;;18.52;11.93;;;;;;;15.91;49.40;101567.56;5008348;28;20048;-40
2021/12/06 08:49:26;;;;;;;23.63;14.15;;;;;;;15.90;49.17;101574.72;5008291;28;20244;-40
2021/12/06 08:51:55;;;;;;;21.02;12.93;;;;;;;15.89;49.74;101575.72;5007401;28;20157;-39
2021/12/06 08:54:26;;;;;;;22.88;14.25;;;;;;;15.88;49.26;101571.34;5007839;28;20053;-39
2021/12/06 08:56:56;;;;;;;21.38;13.05;;;;;;;15.87;49.21;101569.63;5009703;28;20046;-39
2021/12/06 08:59:23;;;;;;;23.75;14.18;;;;;;;15.87;48.85;101571.44;5000719;28;20125;-39
2021/12/06 09:01:50;;;;;;;20.65;13.50;;;;;;;15.85;49.01;101576.94;5007192;28;20685;-39
2021/12/06 09:04:39;;;;;;;20.15;13.70;;;;;;;15.84;48.94;101575.22;4999710;28;20080;-40
2021/12/06 09:07:12;;;;;;;21.10;13.68;;;;;;;15.83;49.32;101567.31;5012294;28;20042;-39
2021/12/06 09:09:46;;;;;;;20.90;13.30;;;;;;;15.83;49.71;101564.63;5010016;28;20136;-40
2021/12/06 09:12:16;;;;;;;26.90;14.95;;;;;;;15.81;49.41;101569.28;5008975;28;20138;-40
2021/12/06 09:14:44;;;;;;;21.92;13.52;;;;;;;15.79;49.42;101559.53;5008158;28;20172;-40
2021/12/06 09:17:12;;;;;;;19.60;12.98;;;;;;;15.78;48.67;101568.53;5004098;28;20082;-40
2021/12/06 09:19:39;;;;;;;19.33;12.95;;;;;;;15.77;49.26;101569.50;5006728;28;20445;-40
2021/12/06 09:22:06;;;;;;;23.13;14.07;;;;;;;15.76;48.93;101572.31;5010799;28;20372;-40
2021/12/06 09:24:33;;;;;;;22.77;13.73;;;;;;;15.76;49.53;101575.00;5009084;28;20056;-40
2021/12/06 09:27:01;;;;;;;23.42;14.55;;;;;;;15.75;48.78;101573.25;5007871;28;20049;-40
2021/12/06 09:29:28;;;;;;;22.67;13.43;;;;;;;15.74;48.73;101569.75;5004924;28;20859;-43
2021/12/06 09:31:55;;;;;;;21.58;13.82;;;;;;;15.72;48.75;101571.69;5004816;28;20049;-40
2021/12/06 09:34:22;;;;;;;21.63;14.02;;;;;;;15.73;49.17;101570.72;5005443;28;20052;-40
2021/12/06 09:36:49;;;;;;;20.63;13.77;;;;;;;15.73;48.76;101570.72;5007624;28;20049;-40
2021/12/06 09:39:15;;;;;;;21.60;13.70;;;;;;;15.72;48.72;101565.50;5007186;28;20137;-40
2021/12/06 09:41:42;;;;;;;23.73;14.68;;;;;;;15.71;49.57;101561.97;5005101;28;20115;-40
2021/12/06 09:44:10;;;;;;;21.60;13.55;;;;;;;15.71;49.69;101561.13;5009426;28;20073;-40
2021/12/06 09:46:38;;;;;;;22.90;13.93;;;;;;;15.70;49.50;101560.25;5007376;28;20208;-40
2021/12/06 09:49:10;;;;;;;21.20;13.48;;;;;;;15.71;49.15;101555.78;5008676;28;20174;-40
2021/12/06 09:51:40;;;;;;;20.55;13.77;;;;;;;15.69;49.66;101555.91;5006006;28;20146;-40
2021/12/06 09:54:07;;;;;;;22.27;13.98;;;;;;;15.69;48.78;101563.91;5007736;28;20141;-39
2021/12/06 09:56:37;;;;;;;22.77;13.90;;;;;;;15.69;49.31;101569.25;5008016;28;20464;-39
2021/12/06 09:59:09;;;;;;;25.17;15.48;;;;;;;15.67;49.10;101560.50;5012502;28;20436;-39
2021/12/06 10:01:41;;;;;;;22.85;13.93;;;;;;;15.66;49.48;101569.50;5003801;28;20045;-40
2021/12/06 10:04:12;;;;;;;23.27;14.90;;;;;;;15.68;48.53;101569.41;5005524;28;20422;-40
2021/12/06 10:06:38;;;;;;;24.90;14.82;;;;;;;15.70;49.08;101557.59;5005377;28;20045;-40
2021/12/06 10:09:07;;;;;;;26.05;15.45;;;;;;;15.76;49.52;101551.78;4997923;28;20145;-43
2021/12/06 10:11:34;;;;;;;27.10;15.90;;;;;;;15.85;48.56;101549.34;5008681;28;20134;-40
2021/12/06 10:14:01;;;;;;;24.83;16.02;;;;;;;15.94;48.52;101540.59;5004300;28;20600;-40
2021/12/06 10:16:28;;;;;;;22.90;14.80;;;;;;;16.03;48.55;101530.00;5006498;28;20156;-40
2021/12/06 10:18:55;;;;;;;25.90;16.67;;;;;;;16.14;49.19;101534.47;5004186;28;20045;-40
2021/12/06 10:21:27;;;;;;;24.30;15.90;;;;;;;16.23;48.65;101525.69;5008771;28;20072;-40
2021/12/06 10:23:55;;;;;;;28.55;16.17;;;;;;;16.35;48.64;101518.50;5005867;28;20057;-40
2021/12/06 10:26:26;;;;;;;29.88;17.30;;;;;;;16.45;48.01;101515.94;5010037;28;20065;-40
2021/12/06 10:29:06;;;;;;;29.15;17.63;;;;;;;16.53;48.46;101511.63;5004533;28;20130;-41
2021/12/06 10:31:34;;;;;;;30.63;18.08;;;;;;;16.62;48.01;101504.66;5008378;28;20385;-40
2021/12/06 10:34:01;;;;;;;28.45;18.15;;;;;;;16.70;48.05;101506.69;5006116;28;20056;-41
2021/12/06 10:36:27;;;;;;;35.90;19.27;;;;;;;16.75;47.52;101502.69;5006552;28;20092;-42
2021/12/06 10:39:01;;;;;;;29.13;17.67;;;;;;;16.83;47.30;101495.84;5001876;28;20426;-41
2021/12/06 10:41:32;;;;;;;30.88;18.75;;;;;;;16.90;47.31;101491.66;5005456;28;20137;-41
2021/12/06 10:44:09;;;;;;;33.33;19.80;;;;;;;16.95;47.31;101484.94;5002901;28;20137;-41
2021/12/06 10:46:39;;;;;;;32.30;18.83;;;;;;;17.01;47.01;101478.22;5005829;28;20141;-42
2021/12/06 10:49:10;;;;;;;33.33;19.23;;;;;;;17.07;47.02;101472.31;5004853;28;20054;-41
2021/12/06 10:51:38;;;;;;;30.17;18.25;;;;;;;17.13;47.41;101462.94;5006661;28;20060;-41
2021/12/06 10:54:09;;;;;;;31.98;18.80;;;;;;;17.18;47.12;101460.69;5005574;28;20046;-42
2021/12/06 10:56:46;;;;;;;32.67;18.23;;;;;;;17.21;46.85;101452.38;5004205;28;20348;-41
2021/12/06 10:59:18;;;;;;;28.30;18.00;;;;;;;17.25;47.08;101441.28;5008561;28;20064;-41
2021/12/06 11:01:48;;;;;;;27.90;17.27;;;;;;;17.29;46.38;101423.09;5001199;28;20054;-42
2021/12/06 11:04:17;;;;;;;30.67;18.80;;;;;;;17.34;46.91;101426.22;5004507;28;20064;-41
2021/12/06 11:06:48;;;;;;;30.63;18.35;;;;;;;17.38;46.61;101421.44;5007544;28;20107;-42
2021/12/06 11:09:26;;;;;;;31.77;18.90;;;;;;;17.41;46.57;101422.00;5006515;28;20052;-42
2021/12/06 11:11:58;;;;;;;27.83;17.02;;;;;;;17.45;46.45;101422.59;5000061;28;20050;-42
2021/12/06 11:14:30;;;;;;;27.98;17.85;;;;;;;17.48;46.66;101424.97;5009368;28;20216;-42
2021/12/06 11:17:06;;;;;;;31.55;17.85;;;;;;;17.52;46.32;101421.03;5010108;28;20616;-42
2021/12/06 11:19:34;;;;;;;31.40;18.70;;;;;;;17.55;46.25;101420.78;5007770;28;20138;-42
2021/12/06 11:22:04;;;;;;;32.03;17.98;;;;;;;17.56;46.05;101414.44;5005892;28;20050;-42
2021/12/06 11:24:39;;;;;;;28.15;17.52;;;;;;;17.59;45.91;101419.53;5007698;28;20071;-42
2021/12/06 11:27:13;;;;;;;30.20;18.30;;;;;;;17.62;45.81;101400.50;5008299;28;20105;-42
2021/12/06 11:30:00;;;;;;;28.38;17.10;;;;;;;17.66;46.15;101398.38;5005021;28;20439;-42
2021/12/06 11:32:32;;;;;;;29.48;17.60;;;;;;;17.68;45.53;101397.25;5006220;28;20046;-42